createdAt,value
2022-12-14T00:01:24.518Z,14.52
2022-12-14T00:03:51.803Z,16.58
2022-12-14T00:06:26.591Z,13.80
2022-12-14T00:08:54.435Z,14.27
2022-12-14T00:11:22.553Z,13.35
2022-12-14T00:13:53.921Z,12.52
2022-12-14T00:16:21.327Z,15.73
2022-12-14T00:18:52.586Z,14.40
2022-12-14T00:21:19.518Z,15.30
2022-12-14T00:23:46.816Z,14.68
2022-12-14T00:26:18.053Z,16.80
2022-12-14T00:28:45.497Z,14.20
2022-12-14T00:31:12.498Z,15.90
2022-12-14T00:33:39.553Z,16.58
2022-12-14T00:36:07.537Z,15.00
2022-12-14T00:38:34.335Z,13.57
2022-12-14T00:41:01.280Z,15.90
2022-12-14T00:43:28.137Z,15.48
2022-12-14T00:45:55.112Z,16.23
2022-12-14T00:48:22.595Z,15.52
2022-12-14T00:50:49.855Z,15.15
2022-12-14T00:53:17.183Z,16.05
2022-12-14T00:55:49.470Z,16.60
2022-12-14T00:58:21.138Z,13.82
2022-12-14T01:00:48.547Z,14.65
2022-12-14T01:03:15.553Z,14.52
2022-12-14T01:05:49.095Z,15.40
2022-12-14T01:08:16.416Z,14.13
2022-12-14T01:10:43.282Z,13.52
2022-12-14T01:13:11.296Z,12.70
2022-12-14T01:15:38.293Z,17.27
2022-12-14T01:18:05.240Z,13.60
2022-12-14T01:20:32.072Z,13.90
2022-12-14T01:22:58.910Z,13.68
2022-12-14T01:25:25.997Z,12.57
2022-12-14T01:27:52.878Z,11.95
2022-12-14T01:30:19.852Z,13.90
2022-12-14T01:32:47.199Z,16.25
2022-12-14T01:35:14.255Z,10.60
2022-12-14T01:37:41.207Z,10.68
2022-12-14T01:40:08.768Z,16.40
2022-12-14T01:42:38.626Z,13.95
2022-12-14T01:45:06.145Z,13.57
2022-12-14T01:47:43.683Z,14.55
2022-12-14T01:50:30.185Z,13.13
2022-12-14T01:52:59.544Z,10.98
2022-12-14T01:55:34.424Z,13.18
2022-12-14T01:58:04.585Z,14.35
2022-12-14T02:00:31.504Z,13.35
2022-12-14T02:03:21.758Z,14.65
2022-12-14T02:06:06.587Z,12.90
2022-12-14T02:08:33.688Z,10.77
2022-12-14T02:11:00.597Z,11.00
2022-12-14T02:13:38.604Z,10.88
2022-12-14T02:16:05.823Z,12.07
2022-12-14T02:18:32.869Z,12.57
2022-12-14T02:21:25.583Z,12.45
2022-12-14T02:24:26.787Z,15.48
2022-12-14T02:26:59.599Z,12.73
2022-12-14T02:29:59.461Z,9.75
2022-12-14T02:33:03.978Z,10.57
2022-12-14T02:35:49.630Z,11.98
2022-12-14T02:38:34.819Z,11.20
2022-12-14T02:41:13.680Z,15.55
2022-12-14T02:44:03.519Z,12.55
2022-12-14T02:46:33.096Z,10.65
2022-12-14T02:49:23.060Z,12.23
2022-12-14T02:52:14.321Z,13.15
2022-12-14T02:55:01.896Z,11.75
2022-12-14T02:57:32.329Z,13.90
2022-12-14T03:00:01.122Z,11.43
2022-12-14T03:02:28.292Z,14.13
2022-12-14T03:04:55.384Z,11.90
2022-12-14T03:07:35.232Z,13.38
2022-12-14T03:10:07.013Z,11.63
2022-12-14T03:12:34.035Z,13.60
2022-12-14T03:15:00.947Z,12.15
2022-12-14T03:17:29.366Z,15.05
2022-12-14T03:20:12.938Z,12.35
2022-12-14T03:22:45.770Z,12.98
2022-12-14T03:25:19.024Z,16.77
2022-12-14T03:28:06.331Z,13.20
2022-12-14T03:30:58.850Z,15.23
2022-12-14T03:33:21.971Z,14.77
2022-12-14T03:36:10.459Z,15.10
2022-12-14T03:38:42.583Z,18.27
2022-12-14T03:41:30.662Z,16.73
2022-12-14T03:44:15.740Z,13.45
2022-12-14T03:46:51.551Z,13.90
2022-12-14T03:49:30.969Z,18.30
2022-12-14T03:52:26.010Z,15.75
2022-12-14T03:54:58.631Z,12.23
2022-12-14T03:57:51.555Z,15.05
2022-12-14T04:00:23.005Z,14.55
2022-12-14T04:03:04.882Z,12.82
2022-12-14T04:05:47.046Z,15.18
2022-12-14T04:08:28.713Z,13.98
2022-12-14T04:11:14.640Z,11.63
2022-12-14T04:14:13.492Z,13.52
2022-12-14T04:16:59.701Z,14.45
2022-12-14T04:19:54.079Z,14.90
2022-12-14T04:22:25.730Z,11.40
2022-12-14T04:25:17.302Z,13.75
2022-12-14T04:27:49.890Z,12.30
2022-12-14T04:30:16.761Z,15.55
2022-12-14T04:33:22.811Z,12.40
2022-12-14T04:35:49.575Z,15.60
2022-12-14T04:38:22.464Z,12.27
2022-12-14T04:40:52.632Z,13.20
2022-12-14T04:43:24.805Z,13.13
2022-12-14T04:45:59.494Z,13.95
2022-12-14T04:48:53.081Z,13.25
2022-12-14T04:51:46.119Z,13.98
2022-12-14T04:54:37.603Z,11.52
2022-12-14T04:57:19.463Z,13.88
2022-12-14T04:59:46.429Z,15.85
2022-12-14T05:02:39.053Z,12.88
2022-12-14T05:05:11.793Z,11.43
2022-12-14T05:08:06.249Z,12.77
2022-12-14T05:10:42.580Z,15.23
2022-12-14T05:13:14.839Z,14.07
2022-12-14T05:15:46.827Z,14.13
2022-12-14T05:18:13.583Z,12.63
2022-12-14T05:20:40.429Z,12.02
2022-12-14T05:23:07.180Z,11.75
2022-12-14T05:25:33.959Z,13.45
2022-12-14T05:28:00.741Z,15.40
2022-12-14T05:30:27.592Z,11.50
2022-12-14T05:32:54.429Z,14.13
2022-12-14T05:35:21.180Z,12.85
2022-12-14T05:37:49.286Z,13.18
2022-12-14T05:40:16.564Z,14.18
2022-12-14T05:42:46.076Z,13.15
2022-12-14T05:45:14.784Z,13.60
2022-12-14T05:47:41.631Z,14.20
2022-12-14T05:50:09.183Z,12.70
2022-12-14T05:52:35.940Z,13.63
2022-12-14T05:55:04.785Z,13.48
2022-12-14T05:57:32.080Z,17.63
2022-12-14T05:59:58.912Z,16.30
2022-12-14T06:02:25.921Z,13.43
2022-12-14T06:04:52.800Z,16.48
2022-12-14T06:07:24.540Z,16.77
2022-12-14T06:09:54.422Z,14.98
2022-12-14T06:12:21.176Z,14.70
2022-12-14T06:14:47.960Z,14.02
2022-12-14T06:17:14.716Z,13.90
2022-12-14T06:19:41.568Z,16.23
2022-12-14T06:22:08.323Z,14.77
2022-12-14T06:24:35.101Z,13.93
2022-12-14T06:27:01.916Z,14.00
2022-12-14T06:29:28.777Z,15.15
2022-12-14T06:31:55.540Z,18.30
2022-12-14T06:34:26.540Z,22.33
2022-12-14T06:36:55.447Z,14.05
2022-12-14T06:39:22.207Z,14.95
2022-12-14T06:41:50.586Z,16.08
2022-12-14T06:44:17.510Z,19.02
2022-12-14T06:46:45.008Z,13.35
2022-12-14T06:49:13.899Z,12.70
2022-12-14T06:51:40.808Z,14.27
2022-12-14T06:54:07.728Z,16.02
2022-12-14T06:56:34.569Z,15.15
2022-12-14T06:59:01.342Z,16.85
2022-12-14T07:01:29.265Z,18.52
2022-12-14T07:03:57.382Z,15.75
2022-12-14T07:06:24.889Z,18.13
2022-12-14T07:08:55.631Z,15.07
2022-12-14T07:11:22.684Z,18.23
2022-12-14T07:13:49.520Z,16.40
2022-12-14T07:16:21.223Z,19.27
2022-12-14T07:18:48.254Z,19.10
2022-12-14T07:21:16.073Z,17.33
2022-12-14T07:23:43.620Z,19.60
2022-12-14T07:26:15.426Z,19.30
2022-12-14T07:28:42.314Z,25.60
2022-12-14T07:31:14.940Z,20.40
2022-12-14T07:33:41.760Z,22.30
2022-12-14T07:36:16.674Z,20.30
2022-12-14T07:38:44.260Z,22.60
2022-12-14T07:41:29.471Z,22.90
2022-12-14T07:43:56.715Z,25.83
2022-12-14T07:46:25.272Z,20.20
2022-12-14T07:48:53.808Z,27.08
2022-12-14T07:51:22.359Z,27.52
2022-12-14T07:53:49.354Z,25.85
2022-12-14T07:56:37.055Z,23.35
2022-12-14T07:59:04.652Z,25.42
2022-12-14T08:01:35.368Z,24.85
2022-12-14T08:04:16.173Z,25.50
2022-12-14T08:06:43.191Z,23.42
2022-12-14T08:09:10.622Z,26.25
2022-12-14T08:11:37.402Z,21.98
2022-12-14T08:14:06.159Z,27.10
2022-12-14T08:16:33.147Z,23.65
2022-12-14T08:19:00.300Z,28.02
2022-12-14T08:21:27.317Z,24.13
2022-12-14T08:23:54.762Z,24.95
2022-12-14T08:26:21.708Z,28.30
2022-12-14T08:28:48.810Z,27.85
2022-12-14T08:31:17.461Z,27.75
2022-12-14T08:33:44.607Z,27.58
2022-12-14T08:36:22.469Z,28.33
2022-12-14T08:38:53.788Z,27.60
2022-12-14T08:41:20.909Z,26.15
2022-12-14T08:43:52.629Z,31.38
2022-12-14T08:46:19.886Z,30.90
2022-12-14T08:48:46.780Z,30.98
2022-12-14T08:51:13.642Z,28.83
2022-12-14T08:53:40.704Z,29.30
2022-12-14T08:56:10.577Z,30.65
2022-12-14T08:58:37.498Z,30.83
2022-12-14T09:01:05.752Z,27.92
2022-12-14T09:03:33.147Z,33.90
2022-12-14T09:06:04.749Z,32.40
2022-12-14T09:08:32.318Z,25.58
2022-12-14T09:10:59.900Z,28.55
2022-12-14T09:13:27.478Z,31.65
2022-12-14T09:15:58.268Z,31.85
2022-12-14T09:18:25.181Z,32.67
2022-12-14T09:20:54.504Z,34.97
2022-12-14T09:23:23.187Z,33.65
2022-12-14T09:26:10.074Z,29.67
2022-12-14T09:28:37.941Z,36.75
2022-12-14T09:31:06.326Z,29.13
2022-12-14T09:33:33.860Z,28.33
2022-12-14T09:36:04.663Z,33.33
2022-12-14T09:38:32.397Z,33.10
2022-12-14T09:41:01.284Z,32.22
2022-12-14T09:43:57.966Z,32.72
2022-12-14T09:46:36.330Z,31.88
2022-12-14T09:49:03.330Z,34.35
2022-12-14T09:51:35.163Z,40.08
2022-12-14T09:54:06.927Z,30.58
2022-12-14T09:56:33.890Z,36.33
2022-12-14T09:59:02.045Z,33.47
2022-12-14T10:02:29.199Z,36.05
2022-12-14T10:04:53.370Z,32.90
2022-12-14T10:07:24.438Z,39.53
2022-12-14T10:09:53.949Z,38.65
2022-12-14T10:12:57.811Z,32.30
2022-12-14T10:15:40.070Z,34.17
2022-12-14T10:18:33.976Z,36.88
2022-12-14T10:21:03.309Z,35.20
2022-12-14T10:23:30.101Z,36.70
2022-12-14T10:26:07.715Z,37.30
2022-12-14T10:28:42.259Z,37.00
2022-12-14T10:31:12.144Z,37.42
2022-12-14T10:33:41.315Z,32.95
2022-12-14T10:36:19.401Z,35.97
2022-12-14T10:38:54.279Z,37.45
2022-12-14T10:41:58.329Z,42.70
2022-12-14T10:44:43.403Z,36.13
2022-12-14T10:47:34.830Z,37.25
2022-12-14T10:50:23.971Z,36.47
2022-12-14T10:52:52.529Z,35.15
2022-12-14T10:55:24.949Z,36.00
2022-12-14T10:57:51.700Z,41.00
2022-12-14T11:00:25.927Z,36.90
2022-12-14T11:02:56.805Z,42.50
2022-12-14T11:05:37.253Z,38.65
2022-12-14T11:08:10.119Z,41.15
2022-12-14T11:10:39.626Z,39.83
2022-12-14T11:13:18.103Z,38.95
2022-12-14T11:15:48.272Z,38.03
2022-12-14T11:18:27.295Z,35.97
2022-12-14T11:20:56.456Z,37.05
2022-12-14T11:23:30.579Z,42.10
2022-12-14T11:26:02.380Z,38.90
2022-12-14T11:28:49.916Z,37.03
2022-12-14T11:31:20.445Z,37.35
2022-12-14T11:33:49.743Z,39.97
2022-12-14T11:36:37.041Z,36.28
2022-12-14T11:39:15.604Z,43.17
2022-12-14T11:41:46.744Z,41.72
2022-12-14T11:44:16.522Z,37.95
2022-12-14T11:46:54.130Z,37.97
2022-12-14T11:49:34.683Z,33.72
2022-12-14T11:52:19.994Z,38.45
2022-12-14T11:54:52.772Z,32.42
2022-12-14T11:57:49.340Z,33.78
2022-12-14T12:00:25.596Z,36.85
2022-12-14T12:03:00.261Z,31.13
2022-12-14T12:05:27.191Z,31.25
2022-12-14T12:07:58.011Z,33.08
2022-12-14T12:10:37.286Z,32.33
2022-12-14T12:13:05.431Z,30.48
2022-12-14T12:15:49.772Z,32.40
2022-12-14T12:18:22.046Z,33.22
2022-12-14T12:21:16.489Z,32.50
2022-12-14T12:24:13.013Z,32.35
2022-12-14T12:26:58.981Z,34.67
2022-12-14T12:29:28.432Z,30.83
2022-12-14T12:32:01.089Z,28.90
2022-12-14T12:34:37.348Z,31.67
2022-12-14T12:39:59.387Z,29.08
2022-12-14T12:42:44.794Z,32.40
2022-12-14T12:45:30.200Z,29.75
2022-12-14T12:48:01.329Z,32.53
2022-12-14T12:50:33.819Z,29.73
2022-12-14T12:53:11.934Z,35.00
2022-12-14T12:55:52.223Z,33.40
2022-12-14T12:58:29.975Z,32.85
2022-12-14T13:00:58.875Z,31.40
2022-12-14T13:03:28.221Z,35.17
2022-12-14T13:05:56.903Z,35.92
2022-12-14T13:08:26.851Z,31.33
2022-12-14T13:11:24.509Z,35.78
2022-12-14T13:13:44.923Z,32.35
2022-12-14T13:16:24.876Z,38.38
2022-12-14T13:19:04.895Z,34.40
2022-12-14T13:21:47.991Z,33.20
2022-12-14T13:24:18.719Z,31.13
2022-12-14T13:27:13.767Z,34.78
2022-12-14T13:30:06.181Z,29.45
2022-12-14T13:32:46.001Z,36.05
2022-12-14T13:35:41.643Z,34.28
2022-12-14T13:38:38.116Z,30.60
2022-12-14T13:41:10.890Z,34.50
2022-12-14T13:43:47.954Z,30.40
2022-12-14T13:46:27.768Z,37.80
2022-12-14T13:48:56.283Z,29.67
2022-12-14T13:51:30.078Z,34.85
2022-12-14T13:54:00.844Z,33.22
2022-12-14T13:56:34.857Z,32.25
2022-12-14T13:59:23.555Z,34.97
2022-12-14T14:01:50.381Z,32.17
2022-12-14T14:04:27.996Z,38.40
2022-12-14T14:06:55.986Z,31.45
2022-12-14T14:09:34.714Z,33.45
2022-12-14T14:12:24.317Z,34.00
2022-12-14T14:14:51.853Z,31.15
2022-12-14T14:17:26.113Z,32.58
2022-12-14T14:19:54.355Z,30.27
2022-12-14T14:22:25.797Z,37.13
2022-12-14T14:24:59.441Z,29.48
2022-12-14T14:27:32.982Z,33.00
2022-12-14T14:29:59.880Z,32.03
2022-12-14T14:32:40.592Z,33.08
2022-12-14T14:35:29.845Z,32.42
2022-12-14T14:38:01.951Z,32.03
2022-12-14T14:40:51.283Z,30.33
2022-12-14T14:43:44.830Z,34.17
2022-12-14T14:46:22.228Z,28.60
2022-12-14T14:48:54.411Z,32.88
2022-12-14T14:51:26.672Z,31.33
2022-12-14T14:54:44.743Z,30.58
2022-12-14T14:57:04.757Z,29.30
2022-12-14T14:59:40.644Z,31.75
2022-12-14T15:02:25.294Z,33.05
2022-12-14T15:04:56.861Z,34.25
2022-12-14T15:07:31.452Z,32.38
2022-12-14T15:10:23.098Z,32.28
2022-12-14T15:12:52.476Z,31.13
2022-12-14T15:15:21.820Z,37.45
2022-12-14T15:17:49.805Z,37.30
2022-12-14T15:20:29.663Z,36.22
2022-12-14T15:22:56.585Z,32.67
2022-12-14T15:25:28.023Z,37.65
2022-12-14T15:27:55.610Z,33.55
2022-12-14T15:30:24.003Z,39.28
2022-12-14T15:32:53.194Z,37.20
2022-12-14T15:35:31.382Z,31.02
2022-12-14T15:38:00.950Z,36.72
2022-12-14T15:40:30.398Z,31.17
2022-12-14T15:43:01.064Z,33.40
2022-12-14T15:45:35.498Z,32.35
2022-12-14T15:48:25.017Z,32.42
2022-12-14T15:50:54.475Z,35.47
2022-12-14T15:53:33.779Z,32.28
2022-12-14T15:56:08.362Z,32.45
2022-12-14T15:58:39.197Z,34.80
2022-12-14T16:01:10.192Z,38.58
2022-12-14T16:03:39.008Z,30.77
2022-12-14T16:06:05.962Z,31.58
2022-12-14T16:08:34.122Z,34.63
2022-12-14T16:11:03.759Z,33.60
2022-12-14T16:13:36.021Z,30.85
2022-12-14T16:16:12.672Z,34.85
2022-12-14T16:18:44.771Z,29.17
2022-12-14T16:21:31.696Z,32.70
2022-12-14T16:23:59.110Z,29.42
2022-12-14T16:26:38.888Z,34.20
2022-12-14T16:29:19.543Z,36.08
2022-12-14T16:31:48.054Z,29.42
2022-12-14T16:34:19.391Z,35.85
2022-12-14T16:37:07.983Z,31.15
2022-12-14T16:39:39.051Z,34.15
2022-12-14T16:42:07.110Z,34.95
2022-12-14T16:44:36.789Z,30.20
2022-12-14T16:47:08.719Z,28.48
2022-12-14T16:49:57.450Z,29.92
2022-12-14T16:52:27.142Z,31.27
2022-12-14T16:55:14.579Z,35.97
2022-12-14T16:58:00.064Z,31.83
2022-12-14T17:00:37.849Z,33.00
2022-12-14T17:03:09.564Z,30.75
2022-12-14T17:05:38.269Z,33.40
2022-12-14T17:08:05.784Z,32.42
2022-12-14T17:10:33.368Z,38.58
2022-12-14T17:13:02.507Z,31.13
2022-12-14T17:15:32.258Z,34.58
2022-12-14T17:17:59.933Z,37.28
2022-12-14T17:20:31.860Z,42.97
2022-12-14T17:22:59.413Z,35.53
2022-12-14T17:25:27.350Z,37.88
2022-12-14T17:27:54.349Z,31.30
2022-12-14T17:30:22.440Z,35.58
2022-12-14T17:32:49.589Z,40.00
2022-12-14T17:35:24.240Z,37.88
2022-12-14T17:37:51.427Z,35.65
2022-12-14T17:40:18.235Z,40.50
2022-12-14T17:42:47.379Z,40.05
2022-12-14T17:45:27.883Z,37.47
2022-12-14T17:47:54.973Z,40.10
2022-12-14T17:50:21.889Z,39.40
2022-12-14T17:52:50.390Z,40.30
2022-12-14T17:55:22.139Z,41.70
2022-12-14T17:57:49.150Z,41.22
2022-12-14T18:00:44.780Z,41.97
2022-12-14T18:03:12.717Z,42.85
2022-12-14T18:05:44.931Z,43.65
2022-12-14T18:08:16.222Z,38.95
2022-12-14T18:10:43.168Z,47.42
2022-12-14T18:13:11.260Z,43.42
2022-12-14T18:15:39.763Z,48.25
2022-12-14T18:18:06.971Z,40.80
2022-12-14T18:20:34.078Z,44.50
2022-12-14T18:23:00.892Z,54.97
2022-12-14T18:25:33.523Z,44.40
2022-12-14T18:28:01.140Z,42.08
2022-12-14T18:30:31.989Z,46.60
2022-12-14T18:33:01.921Z,46.22
2022-12-14T18:35:30.509Z,43.78
2022-12-14T18:37:57.541Z,54.85
2022-12-14T18:40:26.830Z,48.70
2022-12-14T18:42:53.830Z,46.88
2022-12-14T18:45:28.308Z,48.42
2022-12-14T18:47:56.461Z,47.17
2022-12-14T18:50:23.410Z,55.35
2022-12-14T18:52:50.290Z,46.67
2022-12-14T18:55:19.206Z,50.42
2022-12-14T18:57:46.508Z,55.88
2022-12-14T19:00:15.159Z,47.53
2022-12-14T19:02:43.125Z,49.38
2022-12-14T19:05:10.731Z,53.08
2022-12-14T19:07:37.561Z,56.90
2022-12-14T19:10:04.783Z,54.20
2022-12-14T19:12:31.719Z,49.85
2022-12-14T19:14:58.558Z,49.67
2022-12-14T19:17:25.463Z,55.70
2022-12-14T19:19:52.353Z,54.53
2022-12-14T19:22:19.212Z,53.30
2022-12-14T19:24:52.033Z,52.22
2022-12-14T19:27:36.366Z,53.97
2022-12-14T19:30:07.745Z,49.60
2022-12-14T19:32:34.649Z,47.20
2022-12-14T19:35:01.520Z,44.58
2022-12-14T19:37:29.016Z,54.58
2022-12-14T19:39:55.871Z,53.78
2022-12-14T19:42:23.298Z,53.95
2022-12-14T19:44:50.158Z,53.95
2022-12-14T19:47:17.149Z,55.92
2022-12-14T19:49:44.000Z,63.42
2022-12-14T19:52:10.823Z,57.28
2022-12-14T19:54:39.988Z,53.63
2022-12-14T19:57:06.903Z,58.72
2022-12-14T19:59:33.804Z,58.50
2022-12-14T20:02:01.668Z,59.92
2022-12-14T20:04:28.870Z,57.75
2022-12-14T20:06:55.822Z,51.70
2022-12-14T20:09:22.671Z,54.72
2022-12-14T20:11:49.578Z,57.83
2022-12-14T20:14:16.475Z,62.08
2022-12-14T20:16:43.555Z,51.53
2022-12-14T20:19:12.172Z,59.42
2022-12-14T20:21:39.258Z,59.85
2022-12-14T20:24:06.548Z,62.38
2022-12-14T20:26:33.380Z,61.47
2022-12-14T20:29:06.020Z,62.20
2022-12-14T20:31:33.954Z,50.97
2022-12-14T20:34:01.767Z,58.90
2022-12-14T20:36:29.544Z,61.65
2022-12-14T20:38:58.149Z,58.55
2022-12-14T20:41:25.281Z,54.45
2022-12-14T20:43:52.119Z,65.43
2022-12-14T20:46:35.748Z,59.95
2022-12-14T20:49:07.401Z,68.07
2022-12-14T20:51:35.670Z,68.28
2022-12-14T20:54:03.261Z,61.60
2022-12-14T20:56:30.166Z,71.78
2022-12-14T20:58:57.299Z,62.58
2022-12-14T21:01:24.373Z,64.13
2022-12-14T21:03:51.400Z,71.03
2022-12-14T21:06:20.280Z,61.72
2022-12-14T21:09:06.102Z,64.78
2022-12-14T21:11:56.349Z,67.53
2022-12-14T21:14:24.445Z,52.85
2022-12-14T21:16:51.535Z,61.53
2022-12-14T21:19:18.515Z,59.60
2022-12-14T21:21:53.028Z,65.80
2022-12-14T21:24:37.362Z,54.22
2022-12-14T21:27:08.488Z,62.95
2022-12-14T21:29:35.313Z,63.53
2022-12-14T21:32:02.160Z,73.95
2022-12-14T21:34:28.992Z,58.97
2022-12-14T21:36:55.808Z,59.90
2022-12-14T21:39:22.780Z,71.00
2022-12-14T21:42:08.006Z,67.60
2022-12-14T21:44:37.475Z,63.08
2022-12-14T21:47:05.762Z,59.25
2022-12-14T21:49:32.561Z,66.65
2022-12-14T21:51:59.414Z,73.20
2022-12-14T21:54:26.276Z,69.93
2022-12-14T21:57:11.814Z,59.65
2022-12-14T21:59:40.833Z,65.90
2022-12-14T22:02:10.995Z,58.97
2022-12-14T22:04:39.918Z,70.97
2022-12-14T22:07:07.074Z,57.05
2022-12-14T22:09:33.856Z,73.05
2022-12-14T22:12:00.643Z,62.78
2022-12-14T22:14:27.455Z,60.13
2022-12-14T22:16:54.299Z,68.03
2022-12-14T22:19:22.602Z,58.67
2022-12-14T22:21:49.873Z,67.40
2022-12-14T22:24:16.971Z,66.87
2022-12-14T22:26:44.760Z,66.90
2022-12-14T22:29:12.060Z,65.30
2022-12-14T22:31:38.970Z,54.97
2022-12-14T22:34:06.832Z,61.85
2022-12-14T22:36:33.707Z,63.10
2022-12-14T22:39:00.464Z,65.70
2022-12-14T22:41:27.412Z,75.38
2022-12-14T22:43:57.824Z,61.67
2022-12-14T22:46:28.026Z,68.93
2022-12-14T22:48:55.143Z,69.43
2022-12-14T22:51:21.931Z,69.80
2022-12-14T22:53:49.872Z,59.40
2022-12-14T22:56:34.561Z,68.45
2022-12-14T22:59:18.832Z,63.83
2022-12-14T23:01:50.060Z,67.75
2022-12-14T23:04:17.402Z,66.22
2022-12-14T23:06:44.757Z,63.05
2022-12-14T23:09:29.916Z,70.20
2022-12-14T23:12:19.689Z,64.03
2022-12-14T23:15:06.710Z,68.38
2022-12-14T23:17:51.676Z,61.80
2022-12-14T23:20:36.803Z,67.93
2022-12-14T23:23:26.144Z,63.22
2022-12-14T23:26:11.764Z,60.25
2022-12-14T23:28:57.572Z,62.67
2022-12-14T23:31:42.693Z,68.70
2022-12-14T23:34:27.965Z,63.22
2022-12-14T23:37:18.159Z,61.67
2022-12-14T23:40:05.273Z,59.90
2022-12-14T23:42:50.392Z,63.08
2022-12-14T23:45:35.583Z,59.00
2022-12-14T23:48:20.803Z,67.63
2022-12-14T23:51:06.006Z,59.03
2022-12-14T23:53:51.342Z,63.22
2022-12-14T23:56:36.473Z,66.57
2022-12-14T23:59:26.402Z,60.15
